createdAt,value
2019-01-31T00:02:29.186Z,2.58
2019-01-31T00:05:42.192Z,2.60
2019-01-31T00:09:01.516Z,3.35
2019-01-31T00:12:10.914Z,2.37
2019-01-31T00:15:06.219Z,2.20
2019-01-31T00:18:05.170Z,2.42
2019-01-31T00:21:14.919Z,2.77
2019-01-31T00:24:24.759Z,2.27
2019-01-31T00:27:31.112Z,2.40
2019-01-31T00:30:24.994Z,2.45
2019-01-31T00:33:50.145Z,2.10
2019-01-31T00:36:32.980Z,2.30
2019-01-31T00:39:30.167Z,2.40
2019-01-31T00:42:29.618Z,1.90
2019-01-31T00:45:40.102Z,2.45
2019-01-31T00:48:25.745Z,2.33
2019-01-31T00:51:06.850Z,2.37
2019-01-31T00:53:57.682Z,2.65
2019-01-31T00:56:52.755Z,2.80
2019-01-31T01:00:24.179Z,2.15
2019-01-31T01:03:42.593Z,2.55
2019-01-31T01:07:06.738Z,3.02
2019-01-31T01:10:03.539Z,2.77
2019-01-31T01:13:18.659Z,2.65
2019-01-31T01:16:23.246Z,4.25
2019-01-31T01:19:17.839Z,2.20
2019-01-31T01:22:32.608Z,2.27
2019-01-31T01:25:16.055Z,2.40
2019-01-31T01:28:29.195Z,2.30
2019-01-31T01:31:19.414Z,2.58
2019-01-31T01:35:00.924Z,2.15
2019-01-31T01:38:02.950Z,2.33
2019-01-31T01:41:08.211Z,3.00
2019-01-31T01:44:21.331Z,2.20
2019-01-31T01:47:14.606Z,2.20
2019-01-31T01:49:54.054Z,2.60
2019-01-31T01:52:46.347Z,2.20
2019-01-31T01:55:56.255Z,2.50
2019-01-31T01:58:55.466Z,2.30
2019-01-31T02:01:46.351Z,2.60
2019-01-31T02:04:55.044Z,1.90
2019-01-31T02:08:03.579Z,2.12
2019-01-31T02:11:05.096Z,1.45
2019-01-31T02:14:11.735Z,1.98
2019-01-31T02:17:15.836Z,1.52
2019-01-31T02:20:12.587Z,1.60
2019-01-31T02:23:22.063Z,2.15
2019-01-31T02:26:37.138Z,1.40
2019-01-31T02:29:53.226Z,1.80
2019-01-31T02:33:00.443Z,2.25
2019-01-31T02:35:55.783Z,2.62
2019-01-31T02:39:05.527Z,1.90
2019-01-31T02:42:43.079Z,1.75
2019-01-31T02:45:40.762Z,2.62
2019-01-31T02:48:48.847Z,1.37
2019-01-31T02:51:43.232Z,2.37
2019-01-31T02:54:33.776Z,1.80
2019-01-31T02:57:38.252Z,1.87
2019-01-31T03:00:39.231Z,2.15
2019-01-31T03:03:55.671Z,2.72
2019-01-31T03:07:01.710Z,2.60
2019-01-31T03:09:38.058Z,1.85
2019-01-31T03:12:16.459Z,1.77
2019-01-31T03:15:03.488Z,1.95
2019-01-31T03:18:17.522Z,2.20
2019-01-31T03:21:40.079Z,1.65
2019-01-31T03:24:56.439Z,1.82
2019-01-31T03:28:07.958Z,2.08
2019-01-31T03:31:19.377Z,1.55
2019-01-31T03:34:12.423Z,1.87
2019-01-31T03:37:12.760Z,1.77
2019-01-31T03:40:22.240Z,2.02
2019-01-31T03:43:39.432Z,1.27
2019-01-31T03:46:59.434Z,1.37
2019-01-31T03:49:54.873Z,2.37
2019-01-31T03:53:14.234Z,1.80
2019-01-31T03:56:27.634Z,1.45
2019-01-31T03:59:27.920Z,1.98
2019-01-31T04:02:21.020Z,1.52
2019-01-31T04:05:17.987Z,2.80
2019-01-31T04:07:47.320Z,1.82
2019-01-31T04:10:19.060Z,1.90
2019-01-31T04:12:47.678Z,2.15
2019-01-31T04:15:17.048Z,1.87
2019-01-31T04:17:46.396Z,1.80
2019-01-31T04:20:15.763Z,1.82
2019-01-31T04:22:45.112Z,1.85
2019-01-31T04:25:14.479Z,2.35
2019-01-31T04:27:43.743Z,1.62
2019-01-31T04:30:14.971Z,1.50
2019-01-31T04:32:44.315Z,2.15
2019-01-31T04:35:13.798Z,2.15
2019-01-31T04:37:43.137Z,1.80
2019-01-31T04:40:12.488Z,1.52
2019-01-31T04:42:41.822Z,2.20
2019-01-31T04:45:11.406Z,1.82
2019-01-31T04:47:40.753Z,1.57
2019-01-31T04:50:12.184Z,2.27
2019-01-31T04:52:41.535Z,1.90
2019-01-31T04:55:11.202Z,2.12
2019-01-31T04:57:40.527Z,1.82
2019-01-31T05:00:12.523Z,1.67
2019-01-31T05:02:42.541Z,1.52
2019-01-31T05:05:11.984Z,2.08
2019-01-31T05:07:41.334Z,2.20
2019-01-31T05:10:12.092Z,1.70
2019-01-31T05:12:41.399Z,1.92
2019-01-31T05:15:12.630Z,2.10
2019-01-31T05:17:42.009Z,1.65
2019-01-31T05:20:16.540Z,1.50
2019-01-31T05:22:46.009Z,2.25
2019-01-31T05:25:15.794Z,1.70
2019-01-31T05:27:45.119Z,1.60
2019-01-31T05:30:15.551Z,1.50
2019-01-31T05:32:44.930Z,1.80
2019-01-31T05:35:14.371Z,1.50
2019-01-31T05:37:43.764Z,1.50
2019-01-31T05:40:14.679Z,1.90
2019-01-31T05:42:44.057Z,1.90
2019-01-31T05:45:14.752Z,1.85
2019-01-31T05:47:44.104Z,1.70
2019-01-31T05:50:18.210Z,1.60
2019-01-31T05:52:47.580Z,1.50
2019-01-31T05:55:16.899Z,1.30
2019-01-31T05:57:46.267Z,1.20
2019-01-31T06:00:19.213Z,1.50
2019-01-31T06:02:48.567Z,2.00
2019-01-31T06:05:17.997Z,2.37
2019-01-31T06:07:47.331Z,1.67
2019-01-31T06:10:16.871Z,1.92
2019-01-31T06:12:46.199Z,2.05
2019-01-31T06:15:16.025Z,2.10
2019-01-31T06:17:45.451Z,2.83
2019-01-31T06:20:18.173Z,2.22
2019-01-31T06:22:47.574Z,2.00
2019-01-31T06:25:16.961Z,2.05
2019-01-31T06:27:46.275Z,2.25
2019-01-31T06:30:16.735Z,2.55
2019-01-31T06:32:46.103Z,1.85
2019-01-31T06:35:15.685Z,2.00
2019-01-31T06:37:45.054Z,2.15
2019-01-31T06:40:16.478Z,1.62
2019-01-31T06:42:45.817Z,2.00
2019-01-31T06:45:17.232Z,1.62
2019-01-31T06:47:46.576Z,1.80
2019-01-31T06:50:15.931Z,1.92
2019-01-31T06:52:45.266Z,2.50
2019-01-31T06:55:14.726Z,2.10
2019-01-31T06:57:44.065Z,2.00
2019-01-31T07:00:16.268Z,1.85
2019-01-31T07:02:45.603Z,2.70
2019-01-31T07:05:14.976Z,2.85
2019-01-31T07:07:44.306Z,2.20
2019-01-31T07:10:16.651Z,2.08
2019-01-31T07:12:45.991Z,1.90
2019-01-31T07:15:15.496Z,2.00
2019-01-31T07:17:44.842Z,2.05
2019-01-31T07:20:15.163Z,2.70
2019-01-31T07:22:44.491Z,3.65
2019-01-31T07:25:19.366Z,2.10
2019-01-31T07:27:48.804Z,2.87
2019-01-31T07:30:18.351Z,2.45
2019-01-31T07:32:47.691Z,4.03
2019-01-31T07:35:17.156Z,3.95
2019-01-31T07:37:46.539Z,4.60
2019-01-31T07:40:17.819Z,4.22
2019-01-31T07:42:47.175Z,3.00
2019-01-31T07:45:25.176Z,2.72
2019-01-31T07:47:54.512Z,2.77
2019-01-31T07:50:23.880Z,3.52
2019-01-31T07:52:53.715Z,2.37
2019-01-31T07:55:23.050Z,2.55
2019-01-31T07:57:52.416Z,2.95
2019-01-31T08:00:21.992Z,3.05
2019-01-31T08:02:51.528Z,2.35
2019-01-31T08:05:21.643Z,2.40
2019-01-31T08:07:52.032Z,2.63
2019-01-31T08:10:24.234Z,2.20
2019-01-31T08:12:53.622Z,1.93
2019-01-31T08:15:22.965Z,2.17
2019-01-31T08:17:52.331Z,2.37
2019-01-31T08:20:21.679Z,2.30
2019-01-31T08:22:51.063Z,2.30
2019-01-31T08:25:20.942Z,3.03
2019-01-31T08:27:50.585Z,5.23
2019-01-31T08:30:25.280Z,4.67
2019-01-31T08:32:54.650Z,5.43
2019-01-31T08:35:24.090Z,3.80
2019-01-31T08:37:53.475Z,3.63
2019-01-31T08:40:22.831Z,3.07
2019-01-31T08:42:52.194Z,3.50
2019-01-31T08:45:21.563Z,2.90
2019-01-31T08:47:51.090Z,3.50
2019-01-31T08:50:22.123Z,2.90
2019-01-31T08:52:51.502Z,3.17
2019-01-31T08:55:20.827Z,3.20
2019-01-31T08:57:50.210Z,3.40
2019-01-31T09:00:21.545Z,3.50
2019-01-31T09:02:50.998Z,2.77
2019-01-31T09:05:20.354Z,2.90
2019-01-31T09:07:49.812Z,3.17
2019-01-31T09:10:27.306Z,4.83
2019-01-31T09:12:56.915Z,3.73
2019-01-31T09:15:26.625Z,3.57
2019-01-31T09:17:55.997Z,3.93
2019-01-31T09:20:51.724Z,3.57
2019-01-31T09:23:49.395Z,2.83
2019-01-31T09:27:04.452Z,3.10
2019-01-31T09:30:02.437Z,2.63
2019-01-31T09:32:51.391Z,2.60
2019-01-31T09:35:55.856Z,2.20
2019-01-31T09:39:30.196Z,2.90
2019-01-31T09:42:47.828Z,3.67
2019-01-31T09:46:10.306Z,2.80
2019-01-31T09:48:49.254Z,2.47
2019-01-31T09:51:46.779Z,2.43
2019-01-31T09:54:56.135Z,2.53
2019-01-31T09:57:53.632Z,2.43
2019-01-31T10:00:59.666Z,2.80
2019-01-31T10:04:19.052Z,2.33
2019-01-31T10:07:32.298Z,2.90
2019-01-31T10:10:51.925Z,2.90
2019-01-31T10:13:53.627Z,3.10
2019-01-31T10:16:38.901Z,2.70
2019-01-31T10:19:35.801Z,2.63
2019-01-31T10:22:20.054Z,3.13
2019-01-31T10:25:26.047Z,2.23
2019-01-31T10:28:28.000Z,2.93
2019-01-31T10:31:35.727Z,3.57
2019-01-31T10:34:52.082Z,2.80
2019-01-31T10:37:42.608Z,3.00
2019-01-31T10:40:48.175Z,3.43
2019-01-31T10:44:13.983Z,2.80
2019-01-31T10:46:53.485Z,2.90
2019-01-31T10:50:06.911Z,2.90
2019-01-31T10:53:07.507Z,3.67
2019-01-31T10:56:24.506Z,3.07
2019-01-31T10:59:09.586Z,2.70
2019-01-31T11:02:08.702Z,3.20
2019-01-31T11:05:17.498Z,2.60
2019-01-31T11:08:08.884Z,3.13
2019-01-31T11:11:21.664Z,3.97
2019-01-31T11:14:15.691Z,3.40
2019-01-31T11:17:23.192Z,3.50
2019-01-31T11:20:32.322Z,3.10
2019-01-31T11:23:22.614Z,3.27
2019-01-31T11:26:19.651Z,2.80
2019-01-31T11:29:18.332Z,2.70
2019-01-31T11:32:15.691Z,2.10
2019-01-31T11:35:23.234Z,2.43
2019-01-31T11:38:31.111Z,2.27
2019-01-31T11:41:38.683Z,2.90
2019-01-31T11:44:42.393Z,2.70
2019-01-31T11:47:39.309Z,2.50
2019-01-31T11:51:04.734Z,2.43
2019-01-31T11:54:14.691Z,2.10
2019-01-31T11:57:23.178Z,2.97
2019-01-31T11:59:52.509Z,2.00
2019-01-31T12:02:21.871Z,3.30
2019-01-31T12:04:51.215Z,2.17
2019-01-31T12:07:20.677Z,2.57
2019-01-31T12:09:50.007Z,3.63
2019-01-31T12:12:19.398Z,3.30
2019-01-31T12:14:48.743Z,2.37
2019-01-31T12:17:18.103Z,2.10
2019-01-31T12:19:47.442Z,4.40
2019-01-31T12:22:16.795Z,2.90
2019-01-31T12:24:46.136Z,3.07
2019-01-31T12:27:15.489Z,2.40
2019-01-31T12:29:44.823Z,2.70
2019-01-31T12:32:14.207Z,3.00
2019-01-31T12:34:43.538Z,2.67
2019-01-31T12:37:12.901Z,3.13
2019-01-31T12:39:42.251Z,2.90
2019-01-31T12:42:11.594Z,2.37
2019-01-31T12:44:40.959Z,2.10
2019-01-31T12:47:10.291Z,2.60
2019-01-31T12:49:39.659Z,2.30
2019-01-31T12:52:09.000Z,2.43
2019-01-31T12:54:38.451Z,2.17
2019-01-31T12:57:07.803Z,2.50
2019-01-31T12:59:37.169Z,3.10
2019-01-31T13:02:06.802Z,2.50
2019-01-31T13:04:36.153Z,2.87
2019-01-31T13:07:06.492Z,2.17
2019-01-31T13:09:35.779Z,3.10
2019-01-31T13:12:05.648Z,2.50
2019-01-31T13:14:34.999Z,3.07
2019-01-31T13:17:04.940Z,2.70
2019-01-31T13:19:34.298Z,3.00
2019-01-31T13:22:03.633Z,2.40
2019-01-31T13:24:33.003Z,2.17
2019-01-31T13:27:02.339Z,2.10
2019-01-31T13:29:31.691Z,2.37
2019-01-31T13:32:01.015Z,2.10
2019-01-31T13:34:30.370Z,3.10
2019-01-31T13:36:59.739Z,2.50
2019-01-31T13:39:29.094Z,2.80
2019-01-31T13:41:58.439Z,2.20
2019-01-31T13:44:27.806Z,2.43
2019-01-31T13:46:57.144Z,2.43
2019-01-31T13:49:26.508Z,2.20
2019-01-31T13:51:55.845Z,2.80
2019-01-31T13:54:25.183Z,2.37
2019-01-31T13:56:54.532Z,2.80
2019-01-31T13:59:23.871Z,2.67
2019-01-31T14:01:53.234Z,2.40
2019-01-31T14:04:22.567Z,2.50
2019-01-31T14:06:51.919Z,2.73
2019-01-31T14:09:21.263Z,2.20
2019-01-31T14:11:50.619Z,3.00
2019-01-31T14:14:19.968Z,2.53
2019-01-31T14:16:49.370Z,2.20
2019-01-31T14:19:18.800Z,2.80
2019-01-31T14:21:48.169Z,2.10
2019-01-31T14:24:17.520Z,3.00
2019-01-31T14:26:46.868Z,2.17
2019-01-31T14:29:16.206Z,2.23
2019-01-31T14:31:45.568Z,2.60
2019-01-31T14:34:14.890Z,3.00
2019-01-31T14:36:44.252Z,1.80
2019-01-31T14:39:13.619Z,2.20
2019-01-31T14:41:42.980Z,1.83
2019-01-31T14:44:20.109Z,2.40
2019-01-31T14:46:43.327Z,2.70
2019-01-31T14:49:12.671Z,2.47
2019-01-31T14:51:42.007Z,2.53
2019-01-31T14:54:11.347Z,2.40
2019-01-31T14:56:40.699Z,3.43
2019-01-31T14:59:10.034Z,2.13
2019-01-31T15:01:39.399Z,2.13
2019-01-31T15:04:08.740Z,1.97
2019-01-31T15:06:38.159Z,1.83
2019-01-31T15:09:09.056Z,2.30
2019-01-31T15:11:38.412Z,3.50
2019-01-31T15:14:08.152Z,2.60
2019-01-31T15:16:37.681Z,1.97
2019-01-31T15:19:07.217Z,3.10
2019-01-31T15:21:36.562Z,1.80
2019-01-31T15:24:05.906Z,2.57
2019-01-31T15:26:35.289Z,2.40
2019-01-31T15:29:04.635Z,2.50
2019-01-31T15:31:33.996Z,2.60
2019-01-31T15:34:03.535Z,2.60
2019-01-31T15:36:32.896Z,2.20
2019-01-31T15:39:02.247Z,2.70
2019-01-31T15:41:31.617Z,2.53
2019-01-31T15:44:00.955Z,3.27
2019-01-31T15:46:30.279Z,2.43
2019-01-31T15:48:59.642Z,2.40
2019-01-31T15:51:28.982Z,2.73
2019-01-31T15:53:58.331Z,2.47
2019-01-31T15:56:27.663Z,2.77
2019-01-31T15:58:57.024Z,2.07
2019-01-31T16:01:26.365Z,2.27
2019-01-31T16:03:55.740Z,1.50
2019-01-31T16:06:25.071Z,1.93
2019-01-31T16:08:54.431Z,1.80
2019-01-31T16:11:23.799Z,1.83
2019-01-31T16:13:53.129Z,2.70
2019-01-31T16:16:22.455Z,29.97
2019-01-31T16:18:51.824Z,6.40
2019-01-31T16:21:21.175Z,4.92
2019-01-31T16:23:50.553Z,3.87
2019-01-31T16:26:19.895Z,3.70
2019-01-31T16:28:49.278Z,2.98
2019-01-31T16:31:18.607Z,3.53
2019-01-31T16:33:47.982Z,3.40
2019-01-31T16:36:17.418Z,4.33
2019-01-31T16:38:46.810Z,3.37
2019-01-31T16:41:17.363Z,3.10
2019-01-31T16:43:46.831Z,3.22
2019-01-31T16:46:16.177Z,4.62
2019-01-31T16:48:45.520Z,17.98
2019-01-31T16:51:14.897Z,14.00
2019-01-31T16:53:44.535Z,10.57
2019-01-31T16:56:13.908Z,10.00
2019-01-31T16:58:43.255Z,7.53
2019-01-31T17:01:12.624Z,6.05
2019-01-31T17:03:42.019Z,5.20
2019-01-31T17:06:11.391Z,4.07
2019-01-31T17:08:40.735Z,3.30
2019-01-31T17:11:10.136Z,2.50
2019-01-31T17:13:39.485Z,3.00
2019-01-31T17:16:08.865Z,2.83
2019-01-31T17:18:38.195Z,3.27
2019-01-31T17:21:07.578Z,3.52
2019-01-31T17:23:36.931Z,3.45
2019-01-31T17:26:06.349Z,3.30
2019-01-31T17:28:35.694Z,2.80
2019-01-31T17:31:05.058Z,2.85
2019-01-31T17:33:34.404Z,2.95
2019-01-31T17:36:03.768Z,3.30
2019-01-31T17:38:33.346Z,2.75
2019-01-31T17:41:02.807Z,2.77
2019-01-31T17:43:32.151Z,2.75
2019-01-31T17:46:01.727Z,2.85
2019-01-31T17:48:31.180Z,2.52
2019-01-31T17:51:00.662Z,2.50
2019-01-31T17:53:30.003Z,2.75
2019-01-31T17:55:59.368Z,2.90
2019-01-31T17:58:28.805Z,3.58
2019-01-31T18:00:59.175Z,3.17
2019-01-31T18:03:28.707Z,2.60
2019-01-31T18:05:58.498Z,2.33
2019-01-31T18:08:27.895Z,2.98
2019-01-31T18:10:57.258Z,2.35
2019-01-31T18:13:26.608Z,2.60
2019-01-31T18:15:55.952Z,3.20
2019-01-31T18:18:25.330Z,2.60
2019-01-31T18:20:54.702Z,2.55
2019-01-31T18:23:24.191Z,2.25
2019-01-31T18:25:53.510Z,2.10
2019-01-31T18:28:22.889Z,2.60
2019-01-31T18:30:52.335Z,2.00
2019-01-31T18:33:21.727Z,1.95
2019-01-31T18:35:51.069Z,1.92
2019-01-31T18:38:20.447Z,2.33
2019-01-31T18:40:49.802Z,2.45
2019-01-31T18:43:19.576Z,2.10
2019-01-31T18:45:53.550Z,1.62
2019-01-31T18:48:19.922Z,1.95
2019-01-31T18:50:49.330Z,2.00
2019-01-31T18:53:18.695Z,1.87
2019-01-31T18:55:48.051Z,1.42
2019-01-31T18:58:17.339Z,1.50
2019-01-31T19:00:48.533Z,1.85
2019-01-31T19:03:17.895Z,2.52
2019-01-31T19:05:47.655Z,1.70
2019-01-31T19:08:17.022Z,1.95
2019-01-31T19:10:46.501Z,1.80
2019-01-31T19:13:15.868Z,2.10
2019-01-31T19:15:46.493Z,2.02
2019-01-31T19:18:15.979Z,2.22
2019-01-31T19:20:45.311Z,2.45
2019-01-31T19:23:14.647Z,1.77
2019-01-31T19:25:44.105Z,1.90
2019-01-31T19:28:13.591Z,2.52
2019-01-31T19:30:43.073Z,2.85
2019-01-31T19:33:12.411Z,2.80
2019-01-31T19:35:41.776Z,2.35
2019-01-31T19:38:11.395Z,1.75
2019-01-31T19:40:45.576Z,2.40
2019-01-31T19:43:14.920Z,2.30
2019-01-31T19:45:46.343Z,2.25
2019-01-31T19:48:15.792Z,1.82
2019-01-31T19:50:45.151Z,2.35
2019-01-31T19:53:14.554Z,2.10
2019-01-31T19:55:43.961Z,2.50
2019-01-31T19:58:13.296Z,2.20
2019-01-31T20:00:42.660Z,2.47
2019-01-31T20:03:12.002Z,2.00
2019-01-31T20:05:41.377Z,2.30
2019-01-31T20:08:11.859Z,1.57
2019-01-31T20:10:41.547Z,2.50
2019-01-31T20:13:10.891Z,3.90
2019-01-31T20:15:40.355Z,4.53
2019-01-31T20:18:09.695Z,5.70
2019-01-31T20:20:39.062Z,5.95
2019-01-31T20:23:10.969Z,4.40
2019-01-31T20:25:39.617Z,3.90
2019-01-31T20:28:09.059Z,3.47
2019-01-31T20:30:38.558Z,4.90
2019-01-31T20:33:07.985Z,3.20
2019-01-31T20:35:37.344Z,2.92
2019-01-31T20:38:06.695Z,3.27
2019-01-31T20:40:38.482Z,2.70
2019-01-31T20:43:08.034Z,3.27
2019-01-31T20:45:37.512Z,3.50
2019-01-31T20:48:07.685Z,3.70
2019-01-31T20:50:38.230Z,3.75
2019-01-31T20:53:07.977Z,3.90
2019-01-31T20:55:37.342Z,4.05
2019-01-31T20:58:06.930Z,3.65
2019-01-31T21:00:41.103Z,3.40
2019-01-31T21:03:10.833Z,3.85
2019-01-31T21:05:40.820Z,2.62
2019-01-31T21:08:11.671Z,3.83
2019-01-31T21:10:41.013Z,3.12
2019-01-31T21:13:10.397Z,3.20
2019-01-31T21:15:39.726Z,3.92
2019-01-31T21:18:09.556Z,3.95
2019-01-31T21:20:38.991Z,3.83
2019-01-31T21:23:09.018Z,3.80
2019-01-31T21:25:38.363Z,3.20
2019-01-31T21:28:07.756Z,3.70
2019-01-31T21:30:39.131Z,3.50
2019-01-31T21:33:08.599Z,2.90
2019-01-31T21:35:38.045Z,2.30
2019-01-31T21:38:07.547Z,3.35
2019-01-31T21:40:38.281Z,2.90
2019-01-31T21:43:07.771Z,2.83
2019-01-31T21:45:37.539Z,2.80
2019-01-31T21:48:08.620Z,2.83
2019-01-31T21:50:37.958Z,3.58
2019-01-31T21:53:07.414Z,3.25
2019-01-31T21:55:36.787Z,3.58
2019-01-31T21:58:06.660Z,3.50
2019-01-31T22:00:36.263Z,3.08
2019-01-31T22:03:06.489Z,3.15
2019-01-31T22:05:35.863Z,2.85
2019-01-31T22:08:05.432Z,2.90
2019-01-31T22:10:34.783Z,3.90
2019-01-31T22:13:04.221Z,5.50
2019-01-31T22:15:33.900Z,6.87
2019-01-31T22:18:03.263Z,5.62
2019-01-31T22:20:32.617Z,4.25
2019-01-31T22:23:02.137Z,3.85
2019-01-31T22:25:31.405Z,4.33
2019-01-31T22:28:00.764Z,3.52
2019-01-31T22:30:32.123Z,3.65
2019-01-31T22:33:01.468Z,3.37
2019-01-31T22:35:30.910Z,3.85
2019-01-31T22:38:00.190Z,3.90
2019-01-31T22:40:29.559Z,3.95
2019-01-31T22:42:58.927Z,4.12
2019-01-31T22:45:28.516Z,5.03
2019-01-31T22:47:57.827Z,4.33
2019-01-31T22:50:27.286Z,6.90
2019-01-31T22:52:56.635Z,6.20
2019-01-31T22:55:26.275Z,9.10
2019-01-31T22:57:55.607Z,8.43
2019-01-31T23:00:58.443Z,7.75
2019-01-31T23:03:27.782Z,6.35
2019-01-31T23:05:57.147Z,7.37
2019-01-31T23:08:26.486Z,6.30
2019-01-31T23:10:55.850Z,7.78
2019-01-31T23:13:25.190Z,7.33
2019-01-31T23:15:54.558Z,8.05
2019-01-31T23:18:23.895Z,8.60
2019-01-31T23:20:53.263Z,7.95
2019-01-31T23:23:22.599Z,8.58
2019-01-31T23:25:51.967Z,6.83
2019-01-31T23:28:21.307Z,7.22
2019-01-31T23:30:50.744Z,7.53
2019-01-31T23:33:20.051Z,7.50
2019-01-31T23:35:49.410Z,5.40
2019-01-31T23:38:18.850Z,7.33
2019-01-31T23:40:48.205Z,6.67
2019-01-31T23:43:17.531Z,6.55
2019-01-31T23:45:46.891Z,6.45
2019-01-31T23:48:16.230Z,8.23
2019-01-31T23:50:45.634Z,8.25
2019-01-31T23:53:14.966Z,9.00
2019-01-31T23:55:44.326Z,8.65
2019-01-31T23:58:13.663Z,7.35
